createdAt,value
2023-05-01T00:01:34.664Z,96800.28
2023-05-01T00:03:37.556Z,96798.41
2023-05-01T00:05:40.502Z,96803.19
2023-05-01T00:07:43.442Z,96795.19
2023-05-01T00:09:46.558Z,96795.19
2023-05-01T00:11:49.370Z,96793.00
2023-05-01T00:13:54.242Z,96790.31
2023-05-01T00:15:58.840Z,96795.09
2023-05-01T00:18:01.684Z,96788.09
2023-05-01T00:20:05.410Z,96788.91
2023-05-01T00:22:08.565Z,96782.75
2023-05-01T00:24:11.565Z,96786.22
2023-05-01T00:26:14.413Z,96780.88
2023-05-01T00:28:19.375Z,96780.66
2023-05-01T00:30:22.085Z,96783.91
2023-05-01T00:32:26.391Z,96774.28
2023-05-01T00:34:30.124Z,96768.91
2023-05-01T00:36:33.026Z,96772.16
2023-05-01T00:38:35.807Z,96774.84
2023-05-01T00:40:43.742Z,96766.56
2023-05-01T00:42:46.610Z,96765.50
2023-05-01T00:44:49.327Z,96757.75
2023-05-01T00:46:52.183Z,96764.94
2023-05-01T00:48:56.733Z,96753.44
2023-05-01T00:51:01.598Z,96751.59
2023-05-01T00:53:05.077Z,96753.44
2023-05-01T00:55:09.098Z,96743.81
2023-05-01T00:57:12.170Z,96746.47
2023-05-01T00:59:15.929Z,96741.94
2023-05-01T01:01:18.917Z,96743.81
2023-05-01T01:03:21.775Z,96731.72
2023-05-01T01:05:29.198Z,96733.00
2023-05-01T01:07:40.971Z,96731.63
2023-05-01T01:09:51.651Z,96724.91
2023-05-01T01:12:14.358Z,96725.16
2023-05-01T01:14:21.222Z,96724.34
2023-05-01T01:16:32.301Z,96721.66
2023-05-01T01:18:40.820Z,96722.47
2023-05-01T01:20:51.033Z,96721.88
2023-05-01T01:23:04.418Z,96718.38
2023-05-01T01:25:31.086Z,96719.66
2023-05-01T01:28:01.408Z,96727.91
2023-05-01T01:30:30.443Z,96725.16
2023-05-01T01:32:57.633Z,96727.47
2023-05-01T01:35:04.780Z,96727.72
2023-05-01T01:37:14.877Z,96727.72
2023-05-01T01:39:28.238Z,96729.81
2023-05-01T01:41:34.320Z,96730.63
2023-05-01T01:43:41.591Z,96734.84
2023-05-01T01:45:47.436Z,96725.78
2023-05-01T01:47:52.934Z,96729.25
2023-05-01T01:49:57.498Z,96726.84
2023-05-01T01:52:03.081Z,96729.16
2023-05-01T01:54:06.548Z,96727.53
2023-05-01T01:56:10.722Z,96724.78
2023-05-01T01:58:16.928Z,96726.88
2023-05-01T02:00:21.129Z,96715.13
2023-05-01T02:02:26.538Z,96720.22
2023-05-01T02:04:31.054Z,96713.03
2023-05-01T02:06:36.139Z,96714.66
2023-05-01T02:08:42.101Z,96718.38
2023-05-01T02:10:46.252Z,96725.56
2023-05-01T02:12:52.130Z,96724.44
2023-05-01T02:14:55.217Z,96725.25
2023-05-01T02:16:58.937Z,96724.44
2023-05-01T02:19:03.832Z,96718.84
2023-05-01T02:21:07.055Z,96719.44
2023-05-01T02:23:11.515Z,96720.22
2023-05-01T02:25:16.590Z,96722.09
2023-05-01T02:27:23.864Z,96713.84
2023-05-01T02:29:28.019Z,96710.13
2023-05-01T02:31:30.953Z,96711.97
2023-05-01T02:33:33.739Z,96705.00
2023-05-01T02:35:40.766Z,96704.69
2023-05-01T02:37:44.186Z,96710.47
2023-05-01T02:39:47.434Z,96713.41
2023-05-01T02:41:54.172Z,96713.41
2023-05-01T02:44:04.287Z,96713.88
2023-05-01T02:46:10.429Z,96705.88
2023-05-01T02:48:18.180Z,96704.25
2023-05-01T02:50:22.708Z,96705.28
2023-05-01T02:52:25.653Z,96710.63
2023-05-01T02:54:29.758Z,96703.09
2023-05-01T02:56:32.707Z,96705.78
2023-05-01T02:58:37.456Z,96703.09
2023-05-01T03:00:40.208Z,96697.97
2023-05-01T03:02:43.336Z,96697.97
2023-05-01T03:04:46.174Z,96701.44
2023-05-01T03:06:49.166Z,96702.28
2023-05-01T03:08:52.026Z,96699.63
2023-05-01T03:10:54.747Z,96700.66
2023-05-01T03:12:57.732Z,96700.06
2023-05-01T03:15:01.866Z,96692.31
2023-05-01T03:17:04.654Z,96697.66
2023-05-01T03:19:07.492Z,96697.66
2023-05-01T03:21:10.311Z,96694.16
2023-05-01T03:23:13.250Z,96693.59
2023-05-01T03:25:16.377Z,96689.06
2023-05-01T03:27:19.131Z,96689.06
2023-05-01T03:29:21.870Z,96691.25
2023-05-01T03:31:26.181Z,96686.97
2023-05-01T03:33:29.078Z,96687.53
2023-05-01T03:35:31.958Z,96695.53
2023-05-01T03:37:34.899Z,96691.59
2023-05-01T03:39:37.676Z,96684.41
2023-05-01T03:41:40.618Z,96689.16
2023-05-01T03:43:43.492Z,96689.75
2023-05-01T03:45:46.500Z,96688.69
2023-05-01T03:47:50.749Z,96684.97
2023-05-01T03:49:53.780Z,96693.00
2023-05-01T03:51:56.672Z,96691.38
2023-05-01T03:53:59.912Z,96689.16
2023-05-01T03:56:04.506Z,96695.53
2023-05-01T03:58:07.789Z,96704.13
2023-05-01T04:00:11.997Z,96697.16
2023-05-01T04:02:14.912Z,96700.06
2023-05-01T04:04:19.177Z,96693.13
2023-05-01T04:06:22.621Z,96692.31
2023-05-01T04:08:25.594Z,96692.78
2023-05-01T04:10:28.734Z,96701.28
2023-05-01T04:12:31.522Z,96697.56
2023-05-01T04:14:34.306Z,96689.53
2023-05-01T04:16:37.320Z,96691.63
2023-05-01T04:18:40.223Z,96689.78
2023-05-01T04:20:44.398Z,96686.28
2023-05-01T04:22:47.701Z,96694.88
2023-05-01T04:24:51.397Z,96693.03
2023-05-01T04:26:54.271Z,96689.53
2023-05-01T04:28:56.976Z,96698.13
2023-05-01T04:30:59.759Z,96701.59
2023-05-01T04:33:02.766Z,96700.31
2023-05-01T04:35:06.421Z,96696.59
2023-05-01T04:37:10.645Z,96698.69
2023-05-01T04:39:13.498Z,96706.38
2023-05-01T04:41:16.601Z,96698.25
2023-05-01T04:43:19.388Z,96714.50
2023-05-01T04:45:22.109Z,96706.75
2023-05-01T04:47:25.032Z,96715.56
2023-05-01T04:49:27.869Z,96715.56
2023-05-01T04:51:31.077Z,96711.50
2023-05-01T04:53:36.014Z,96718.22
2023-05-01T04:55:38.786Z,96720.91
2023-05-01T04:57:41.562Z,96715.81
2023-05-01T04:59:44.356Z,96716.50
2023-05-01T05:01:47.161Z,96712.09
2023-05-01T05:03:52.305Z,96712.59
2023-05-01T05:05:55.416Z,96712.22
2023-05-01T05:07:58.435Z,96716.19
2023-05-01T05:10:02.550Z,96718.84
2023-05-01T05:12:05.940Z,96716.41
2023-05-01T05:14:08.653Z,96714.56
2023-05-01T05:16:11.980Z,96720.94
2023-05-01T05:18:14.810Z,96723.38
2023-05-01T05:20:17.796Z,96717.00
2023-05-01T05:22:20.983Z,96729.06
2023-05-01T05:24:23.726Z,96727.78
2023-05-01T05:26:28.313Z,96719.53
2023-05-01T05:28:31.687Z,96731.03
2023-05-01T05:30:34.592Z,96726.38
2023-05-01T05:32:37.649Z,96723.38
2023-05-01T05:34:40.922Z,96722.22
2023-05-01T05:36:43.633Z,96726.06
2023-05-01T05:38:46.477Z,96729.50
2023-05-01T05:40:49.235Z,96739.03
2023-05-01T05:42:53.461Z,96728.81
2023-05-01T05:44:56.153Z,96737.53
2023-05-01T05:46:59.009Z,96737.03
2023-05-01T05:49:01.846Z,96743.00
2023-05-01T05:51:05.620Z,96748.53
2023-05-01T05:53:09.191Z,96742.28
2023-05-01T05:55:12.158Z,96746.34
2023-05-01T05:57:14.876Z,96741.00
2023-05-01T05:59:19.424Z,96738.66
2023-05-01T06:01:22.383Z,96735.34
2023-05-01T06:03:25.476Z,96736.75
2023-05-01T06:05:28.760Z,96736.25
2023-05-01T06:07:31.539Z,96732.78
2023-05-01T06:09:34.727Z,96722.22
2023-05-01T06:11:37.614Z,96732.69
2023-05-01T06:13:40.474Z,96724.88
2023-05-01T06:15:44.889Z,96724.44
2023-05-01T06:17:48.382Z,96728.72
2023-05-01T06:19:52.371Z,96725.00
2023-05-01T06:21:55.123Z,96723.16
2023-05-01T06:23:57.897Z,96730.00
2023-05-01T06:26:00.715Z,96728.59
2023-05-01T06:28:04.132Z,96727.34
2023-05-01T06:30:09.276Z,96733.03
2023-05-01T06:32:13.465Z,96737.88
2023-05-01T06:34:16.235Z,96737.78
2023-05-01T06:36:18.986Z,96744.97
2023-05-01T06:38:21.849Z,96746.13
2023-05-01T06:40:24.963Z,96746.03
2023-05-01T06:42:27.790Z,96748.13
2023-05-01T06:44:32.793Z,96745.53
2023-05-01T06:46:35.855Z,96749.97
2023-05-01T06:48:40.964Z,96751.09
2023-05-01T06:50:43.965Z,96756.94
2023-05-01T06:52:46.799Z,96757.84
2023-05-01T06:54:49.594Z,96760.66
2023-05-01T06:56:52.368Z,96762.97
2023-05-01T06:58:55.747Z,96762.16
2023-05-01T07:00:58.609Z,96763.75
2023-05-01T07:03:03.273Z,96761.69
2023-05-01T07:05:10.896Z,96761.81
2023-05-01T07:07:14.056Z,96759.00
2023-05-01T07:09:17.139Z,96758.78
2023-05-01T07:11:20.391Z,96758.91
2023-05-01T07:13:23.872Z,96753.91
2023-05-01T07:15:27.183Z,96751.84
2023-05-01T07:17:31.033Z,96761.22
2023-05-01T07:19:34.465Z,96756.47
2023-05-01T07:21:38.777Z,96755.66
2023-05-01T07:23:41.740Z,96763.19
2023-05-01T07:25:45.991Z,96759.84
2023-05-01T07:27:49.104Z,96774.34
2023-05-01T07:29:52.215Z,96770.03
2023-05-01T07:31:55.337Z,96786.31
2023-05-01T07:33:58.200Z,96777.81
2023-05-01T07:36:01.035Z,96782.34
2023-05-01T07:38:05.291Z,96788.50
2023-05-01T07:40:09.184Z,96790.25
2023-05-01T07:42:12.028Z,96798.72
2023-05-01T07:44:14.967Z,96798.25
2023-05-01T07:46:17.952Z,96800.22
2023-05-01T07:48:21.213Z,96802.41
2023-05-01T07:50:24.956Z,96802.41
2023-05-01T07:52:28.684Z,96805.09
2023-05-01T07:54:32.796Z,96801.28
2023-05-01T07:56:35.678Z,96805.81
2023-05-01T07:58:40.900Z,96806.94
2023-05-01T08:00:44.990Z,96811.63
2023-05-01T08:02:48.314Z,96809.53
2023-05-01T08:04:51.602Z,96803.94
2023-05-01T08:06:54.671Z,96803.00
2023-05-01T08:08:57.463Z,96803.47
2023-05-01T08:11:01.751Z,96806.94
2023-05-01T08:13:07.515Z,96803.59
2023-05-01T08:15:11.803Z,96808.09
2023-05-01T08:17:15.046Z,96801.75
2023-05-01T08:19:17.859Z,96802.31
2023-05-01T08:21:20.875Z,96798.00
2023-05-01T08:23:25.265Z,96805.41
2023-05-01T08:25:28.120Z,96804.75
2023-05-01T08:27:32.676Z,96812.63
2023-05-01T08:29:35.489Z,96812.28
2023-05-01T08:31:39.441Z,96812.19
2023-05-01T08:33:44.101Z,96810.34
2023-05-01T08:35:47.156Z,96802.91
2023-05-01T08:37:50.043Z,96821.13
2023-05-01T08:39:52.904Z,96817.16
2023-05-01T08:41:58.337Z,96814.28
2023-05-01T08:44:03.637Z,96819.63
2023-05-01T08:46:10.878Z,96830.66
2023-05-01T08:48:14.714Z,96827.72
2023-05-01T08:50:19.208Z,96827.25
2023-05-01T08:52:23.741Z,96829.59
2023-05-01T08:54:29.802Z,96830.72
2023-05-01T08:56:33.551Z,96829.09
2023-05-01T08:58:36.953Z,96834.44
2023-05-01T09:00:42.685Z,96828.78
2023-05-01T09:02:48.068Z,96829.09
2023-05-01T09:04:52.587Z,96837.00
2023-05-01T09:06:56.462Z,96833.06
2023-05-01T09:08:59.512Z,96826.91
2023-05-01T09:11:03.614Z,96840.03
2023-05-01T09:13:08.373Z,96836.88
2023-05-01T09:15:12.329Z,96839.34
2023-05-01T09:17:16.944Z,96846.53
2023-05-01T09:19:20.291Z,96851.41
2023-05-01T09:21:25.621Z,96850.84
2023-05-01T09:23:29.539Z,96849.09
2023-05-01T09:25:32.334Z,96852.81
2023-05-01T09:27:36.469Z,96852.81
2023-05-01T09:29:40.737Z,96852.22
2023-05-01T09:31:43.674Z,96844.47
2023-05-01T09:33:57.428Z,96859.06
2023-05-01T09:36:00.200Z,96852.34
2023-05-01T09:38:02.989Z,96858.50
2023-05-01T09:40:08.391Z,96855.59
2023-05-01T09:42:11.457Z,96866.75
2023-05-01T09:44:20.303Z,96865.34
2023-05-01T09:46:24.597Z,96859.69
2023-05-01T09:48:27.600Z,96861.97
2023-05-01T09:50:33.221Z,96868.38
2023-05-01T09:52:36.406Z,96860.59
2023-05-01T09:54:40.260Z,96868.28
2023-05-01T09:56:48.595Z,96870.38
2023-05-01T09:58:52.480Z,96866.66
2023-05-01T10:00:55.542Z,96865.03
2023-05-01T10:02:58.671Z,96870.56
2023-05-01T10:05:01.676Z,96870.00
2023-05-01T10:07:15.761Z,96867.09
2023-05-01T10:09:28.577Z,96875.69
2023-05-01T10:11:31.753Z,96873.59
2023-05-01T10:13:34.633Z,96868.84
2023-05-01T10:15:38.662Z,96875.81
2023-05-01T10:17:43.202Z,96877.66
2023-05-01T10:19:46.022Z,96875.81
2023-05-01T10:21:48.854Z,96881.16
2023-05-01T10:23:53.596Z,96889.97
2023-05-01T10:25:58.587Z,96889.16
2023-05-01T10:28:04.789Z,96881.16
2023-05-01T10:30:11.026Z,96883.34
2023-05-01T10:32:14.429Z,96885.56
2023-05-01T10:34:19.312Z,96884.53
2023-05-01T10:36:26.324Z,96889.97
2023-05-01T10:38:34.982Z,96890.91
2023-05-01T10:40:50.904Z,96893.69
2023-05-01T10:43:16.905Z,96891.34
2023-05-01T10:45:30.229Z,96892.97
2023-05-01T10:47:47.969Z,96901.59
2023-05-01T10:50:08.063Z,96896.72
2023-05-01T10:52:11.223Z,96903.66
2023-05-01T10:54:25.529Z,96894.28
2023-05-01T10:56:44.102Z,96896.13
2023-05-01T10:58:58.685Z,96896.94
2023-05-01T11:01:29.926Z,96896.59
2023-05-01T11:03:36.675Z,96899.28
2023-05-01T11:06:08.330Z,96893.59
2023-05-01T11:08:33.244Z,96892.06
2023-05-01T11:10:36.109Z,96892.66
2023-05-01T11:12:54.018Z,96891.34
2023-05-01T11:15:08.355Z,96889.16
2023-05-01T11:17:11.428Z,96890.56
2023-05-01T11:19:50.783Z,96891.16
2023-05-01T11:21:54.328Z,96887.88
2023-05-01T11:23:57.311Z,96880.66
2023-05-01T11:26:08.131Z,96890.09
2023-05-01T11:28:12.915Z,96881.34
2023-05-01T11:30:16.000Z,96882.16
2023-05-01T11:32:27.125Z,96874.28
2023-05-01T11:34:37.789Z,96878.91
2023-05-01T11:36:50.876Z,96884.25
2023-05-01T11:38:56.689Z,96867.66
2023-05-01T11:41:02.009Z,96877.50
2023-05-01T11:43:05.995Z,96870.63
2023-05-01T11:45:11.955Z,96873.41
2023-05-01T11:47:14.936Z,96870.13
2023-05-01T11:49:28.010Z,96870.13
2023-05-01T11:51:31.941Z,96868.16
2023-05-01T11:53:34.944Z,96868.59
2023-05-01T11:55:38.497Z,96871.34
2023-05-01T11:57:49.742Z,96871.47
2023-05-01T11:59:52.736Z,96877.13
2023-05-01T12:01:58.288Z,96872.28
2023-05-01T12:04:04.361Z,96874.84
2023-05-01T12:06:07.440Z,96869.97
2023-05-01T12:08:12.363Z,96872.41
2023-05-01T12:10:15.853Z,96866.00
2023-05-01T12:12:19.307Z,96851.81
2023-05-01T12:14:24.263Z,96859.41
2023-05-01T12:16:28.297Z,96859.06
2023-05-01T12:18:32.570Z,96856.41
2023-05-01T12:20:39.314Z,96863.38
2023-05-01T12:22:51.730Z,96862.81
2023-05-01T12:24:54.745Z,96864.34
2023-05-01T12:27:03.272Z,96862.72
2023-05-01T12:29:09.335Z,96857.94
2023-05-01T12:31:13.371Z,96858.38
2023-05-01T12:33:17.390Z,96858.69
2023-05-01T12:35:22.036Z,96867.53
2023-05-01T12:37:33.736Z,96867.28
2023-05-01T12:39:42.236Z,96862.88
2023-05-01T12:41:47.497Z,96856.69
2023-05-01T12:43:50.614Z,96856.69
2023-05-01T12:45:54.718Z,96852.97
2023-05-01T12:47:57.887Z,96858.66
2023-05-01T12:50:05.142Z,96861.31
2023-05-01T12:52:09.880Z,96856.22
2023-05-01T12:54:18.982Z,96860.41
2023-05-01T12:56:24.613Z,96857.41
2023-05-01T12:58:37.161Z,96864.63
2023-05-01T13:00:49.835Z,96864.69
2023-05-01T13:02:53.028Z,96857.84
2023-05-01T13:05:06.989Z,96853.06
2023-05-01T13:07:15.807Z,96858.97
2023-05-01T13:09:19.328Z,96860.34
2023-05-01T13:11:22.460Z,96860.59
2023-05-01T13:13:31.736Z,96865.13
2023-05-01T13:15:34.759Z,96874.47
2023-05-01T13:17:38.565Z,96864.81
2023-05-01T13:19:42.045Z,96862.47
2023-05-01T13:21:48.850Z,96868.16
2023-05-01T13:23:57.628Z,96868.72
2023-05-01T13:26:01.076Z,96875.47
2023-05-01T13:28:04.083Z,96869.63
2023-05-01T13:30:08.338Z,96864.28
2023-05-01T13:32:12.607Z,96863.47
2023-05-01T13:34:21.906Z,96864.75
2023-05-01T13:36:27.135Z,96865.25
2023-05-01T13:38:30.430Z,96864.91
2023-05-01T13:40:35.455Z,96860.53
2023-05-01T13:42:42.266Z,96847.38
2023-05-01T13:44:47.980Z,96851.94
2023-05-01T13:46:51.222Z,96847.84
2023-05-01T13:48:55.078Z,96838.44
2023-05-01T13:50:57.997Z,96833.56
2023-05-01T13:53:01.272Z,96835.69
2023-05-01T13:55:08.556Z,96827.53
2023-05-01T13:57:13.469Z,96819.53
2023-05-01T13:59:17.369Z,96822.69
2023-05-01T14:01:22.554Z,96823.72
2023-05-01T14:03:26.196Z,96823.41
2023-05-01T14:05:29.474Z,96821.44
2023-05-01T14:07:32.473Z,96815.50
2023-05-01T14:09:37.018Z,96821.59
2023-05-01T14:11:45.464Z,96816.94
2023-05-01T14:13:51.882Z,96818.56
2023-05-01T14:15:54.750Z,96822.28
2023-05-01T14:17:58.826Z,96820.91
2023-05-01T14:20:02.269Z,96819.03
2023-05-01T14:22:08.781Z,96819.28
2023-05-01T14:24:12.359Z,96809.88
2023-05-01T14:26:18.996Z,96811.34
2023-05-01T14:28:22.785Z,96815.09
2023-05-01T14:30:33.358Z,96819.78
2023-05-01T14:32:41.894Z,96820.22
2023-05-01T14:34:45.392Z,96820.81
2023-05-01T14:36:48.456Z,96818.47
2023-05-01T14:38:51.978Z,96812.66
2023-05-01T14:40:54.977Z,96821.25
2023-05-01T14:42:59.168Z,96818.31
2023-05-01T14:45:02.480Z,96823.25
2023-05-01T14:47:09.806Z,96824.38
2023-05-01T14:49:17.713Z,96823.44
2023-05-01T14:51:21.043Z,96818.91
2023-05-01T14:53:24.368Z,96823.44
2023-05-01T14:55:29.382Z,96820.78
2023-05-01T14:57:32.319Z,96827.03
2023-05-01T14:59:35.257Z,96810.72
2023-05-01T15:01:41.927Z,96820.94
2023-05-01T15:03:46.846Z,96812.94
2023-05-01T15:05:50.050Z,96818.28
2023-05-01T15:07:53.497Z,96818.06
2023-05-01T15:09:56.767Z,96816.91
2023-05-01T15:11:59.677Z,96826.22
2023-05-01T15:14:04.407Z,96830.50
2023-05-01T15:16:08.336Z,96823.28
2023-05-01T15:18:12.213Z,96816.09
2023-05-01T15:20:16.810Z,96819.94
2023-05-01T15:22:19.677Z,96820.94
2023-05-01T15:24:25.422Z,96829.81
2023-05-01T15:26:28.276Z,96827.94
2023-05-01T15:28:32.151Z,96836.44
2023-05-01T15:30:35.322Z,96834.72
2023-05-01T15:32:38.697Z,96837.63
2023-05-01T15:34:43.082Z,96842.16
2023-05-01T15:36:47.767Z,96840.31
2023-05-01T15:38:51.198Z,96840.88
2023-05-01T15:40:53.998Z,96842.25
2023-05-01T15:42:57.674Z,96837.72
2023-05-01T15:45:02.350Z,96834.22
2023-05-01T15:47:05.200Z,96837.47
2023-05-01T15:49:09.525Z,96838.84
2023-05-01T15:51:12.836Z,96841.78
2023-05-01T15:53:17.478Z,96841.13
2023-05-01T15:55:21.797Z,96840.53
2023-05-01T15:57:24.896Z,96836.59
2023-05-01T15:59:32.188Z,96842.25
2023-05-01T16:01:36.557Z,96840.97
2023-05-01T16:03:45.399Z,96840.50
2023-05-01T16:05:48.437Z,96839.47
2023-05-01T16:07:56.050Z,96838.03
2023-05-01T16:10:01.074Z,96843.41
2023-05-01T16:12:04.483Z,96832.25
2023-05-01T16:14:09.306Z,96840.34
2023-05-01T16:16:14.484Z,96836.13
2023-05-01T16:18:21.087Z,96838.59
2023-05-01T16:20:24.701Z,96843.72
2023-05-01T16:22:27.999Z,96841.03
2023-05-01T16:24:33.097Z,96843.13
2023-05-01T16:26:37.373Z,96852.19
2023-05-01T16:28:40.994Z,96853.84
2023-05-01T16:30:44.063Z,96864.53
2023-05-01T16:32:46.982Z,96876.25
2023-05-01T16:34:49.952Z,96868.22
2023-05-01T16:36:53.012Z,96867.22
2023-05-01T16:38:56.061Z,96864.53
2023-05-01T16:40:59.277Z,96870.91
2023-05-01T16:43:04.495Z,96860.13
2023-05-01T16:45:08.895Z,96858.38
2023-05-01T16:47:13.187Z,96858.63
2023-05-01T16:49:17.262Z,96854.34
2023-05-01T16:51:20.445Z,96864.78
2023-05-01T16:53:23.465Z,96856.75
2023-05-01T16:55:27.207Z,96864.78
2023-05-01T16:57:30.053Z,96870.06
2023-05-01T16:59:34.728Z,96856.91
2023-05-01T17:01:37.713Z,96858.78
2023-05-01T17:03:40.570Z,96866.56
2023-05-01T17:05:43.504Z,96867.13
2023-05-01T17:07:46.530Z,96872.25
2023-05-01T17:09:49.325Z,96866.91
2023-05-01T17:11:52.420Z,96867.38
2023-05-01T17:13:55.386Z,96871.09
2023-05-01T17:16:00.540Z,96874.00
2023-05-01T17:18:03.355Z,96866.22
2023-05-01T17:20:07.268Z,96872.03
2023-05-01T17:22:10.175Z,96864.00
2023-05-01T17:24:14.056Z,96868.53
2023-05-01T17:26:17.299Z,96865.06
2023-05-01T17:28:20.208Z,96872.03
2023-05-01T17:30:22.958Z,96869.59
2023-05-01T17:32:36.323Z,96878.69
2023-05-01T17:34:40.135Z,96867.16
2023-05-01T17:36:43.608Z,96875.19
2023-05-01T17:38:46.406Z,96867.97
2023-05-01T17:40:49.278Z,96860.19
2023-05-01T17:42:52.068Z,96875.66
2023-05-01T17:44:55.094Z,96866.03
2023-05-01T17:46:58.045Z,96871.38
2023-05-01T17:49:02.426Z,96867.03
2023-05-01T17:51:05.234Z,96866.44
2023-05-01T17:53:09.602Z,96871.78
2023-05-01T17:55:14.860Z,96864.38
2023-05-01T17:57:19.256Z,96865.44
2023-05-01T17:59:22.027Z,96868.31
2023-05-01T18:01:24.846Z,96870.16
2023-05-01T18:03:28.005Z,96872.59
2023-05-01T18:05:32.284Z,96867.25
2023-05-01T18:07:35.396Z,96869.34
2023-05-01T18:09:38.100Z,96875.19
2023-05-01T18:11:41.066Z,96875.41
2023-05-01T18:13:47.214Z,96867.16
2023-05-01T18:15:51.894Z,96875.41
2023-05-01T18:17:55.200Z,96871.69
2023-05-01T18:19:58.855Z,96876.56
2023-05-01T18:22:04.112Z,96873.31
2023-05-01T18:24:07.150Z,96876.81
2023-05-01T18:26:10.173Z,96885.88
2023-05-01T18:28:13.161Z,96879.72
2023-05-01T18:30:16.837Z,96885.06
2023-05-01T18:32:19.869Z,96884.25
2023-05-01T18:34:22.952Z,96891.47
2023-05-01T18:36:27.424Z,96891.69
2023-05-01T18:38:31.741Z,96889.25
2023-05-01T18:40:34.618Z,96887.66
2023-05-01T18:42:37.398Z,96888.91
2023-05-01T18:44:40.152Z,96895.53
2023-05-01T18:46:43.169Z,96893.34
2023-05-01T18:48:46.192Z,96895.19
2023-05-01T18:50:57.510Z,96899.72
2023-05-01T18:53:10.360Z,96908.81
2023-05-01T18:55:14.452Z,96915.19
2023-05-01T18:57:17.417Z,96907.63
2023-05-01T18:59:21.644Z,96908.91
2023-05-01T19:01:25.496Z,96910.53
2023-05-01T19:03:28.398Z,96915.06
2023-05-01T19:05:31.691Z,96914.03
2023-05-01T19:07:34.580Z,96919.38
2023-05-01T19:09:37.490Z,96927.38
2023-05-01T19:11:41.806Z,96923.31
2023-05-01T19:13:44.748Z,96926.81
2023-05-01T19:15:47.875Z,96933.19
2023-05-01T19:17:51.161Z,96929.47
2023-05-01T19:19:54.010Z,96938.53
2023-05-01T19:21:56.892Z,96935.28
2023-05-01T19:23:59.705Z,96939.59
2023-05-01T19:26:02.642Z,96929.94
2023-05-01T19:28:07.434Z,96936.34
2023-05-01T19:30:10.806Z,96940.88
2023-05-01T19:32:13.806Z,96933.06
2023-05-01T19:34:16.792Z,96932.63
2023-05-01T19:36:19.585Z,96936.91
2023-05-01T19:38:22.524Z,96940.16
2023-05-01T19:40:26.681Z,96935.28
2023-05-01T19:42:29.835Z,96932.84
2023-05-01T19:44:34.103Z,96940.06
2023-05-01T19:46:37.016Z,96945.41
2023-05-01T19:48:39.865Z,96943.75
2023-05-01T19:50:50.012Z,96954.69
2023-05-01T19:52:53.704Z,96949.81
2023-05-01T19:54:56.749Z,96963.41
2023-05-01T19:56:59.752Z,96963.16
2023-05-01T19:59:02.795Z,96959.69
2023-05-01T20:01:10.136Z,96964.78
2023-05-01T20:03:13.602Z,96973.84
2023-05-01T20:05:16.680Z,96973.72
2023-05-01T20:07:19.703Z,96973.00
2023-05-01T20:09:22.430Z,96976.50
2023-05-01T20:11:25.309Z,96988.88
2023-05-01T20:13:28.183Z,96985.16
2023-05-01T20:15:31.208Z,96987.03
2023-05-01T20:17:35.500Z,96996.78
2023-05-01T20:19:39.847Z,96999.13
2023-05-01T20:21:42.783Z,97000.06
2023-05-01T20:23:46.316Z,97005.97
2023-05-01T20:25:51.567Z,97001.44
2023-05-01T20:27:54.511Z,97009.59
2023-05-01T20:29:57.809Z,97010.06
2023-05-01T20:32:01.334Z,97009.59
2023-05-01T20:34:05.696Z,97011.53
2023-05-01T20:36:08.822Z,97007.38
2023-05-01T20:38:11.564Z,97010.13
2023-05-01T20:40:16.332Z,97006.06
2023-05-01T20:42:19.164Z,97010.47
2023-05-01T20:44:21.936Z,97009.25
2023-05-01T20:46:24.939Z,97010.25
2023-05-01T20:48:27.974Z,97010.25
2023-05-01T20:50:32.095Z,97012.03
2023-05-01T20:52:35.305Z,97011.78
2023-05-01T20:54:38.225Z,97006.09
2023-05-01T20:56:40.967Z,97012.59
2023-05-01T20:58:44.132Z,97020.63
2023-05-01T21:00:46.862Z,97014.34
2023-05-01T21:02:51.774Z,97029.56
2023-05-01T21:04:55.708Z,97016.53
2023-05-01T21:06:59.787Z,97016.97
2023-05-01T21:09:03.438Z,97021.59
2023-05-01T21:11:06.711Z,97006.50
2023-05-01T21:13:09.742Z,97011.53
2023-05-01T21:15:12.680Z,97007.91
2023-05-01T21:17:16.708Z,97011.38
2023-05-01T21:19:19.693Z,97008.13
2023-05-01T21:21:22.889Z,97010.78
2023-05-01T21:23:28.079Z,97014.84
2023-05-01T21:25:31.923Z,97018.50
2023-05-01T21:27:34.938Z,97014.13
2023-05-01T21:29:38.880Z,97020.84
2023-05-01T21:31:41.652Z,97020.72
2023-05-01T21:33:46.566Z,97013.59
2023-05-01T21:35:49.695Z,97020.34
2023-05-01T21:37:52.509Z,97010.50
2023-05-01T21:40:00.014Z,97020.34
2023-05-01T21:42:04.766Z,97016.94
2023-05-01T21:44:09.153Z,97016.31
2023-05-01T21:46:16.640Z,97014.53
2023-05-01T21:48:20.616Z,97012.81
2023-05-01T21:50:23.457Z,97024.91
2023-05-01T21:52:26.366Z,97013.63
2023-05-01T21:54:32.673Z,97020.84
2023-05-01T21:56:36.807Z,97023.97
2023-05-01T21:58:40.176Z,97012.25
